Time;durP1;ratioP1;P1;durP2;ratioP2;P2;SDS_P1;SDS_P2;PMS_P1;PMS_P2;Temp;Humidity;BMP_temperature;BMP_pressure;BME280_temperature;BME280_humidity;BME280_pressure;Samples;Min_cycle;Max_cycle;Signal;HPM_P1;HPM_P2
2023/07/22 00:00:09;;;;;;;26.08;8.00;;;28.40;79.80;;;;;;5093976;28;20043;-72
2023/07/22 00:03:13;;;;;;;23.85;9.32;;;28.40;80.00;;;;;;5093711;28;20047;-73
2023/07/22 00:06:16;;;;;;;24.80;9.30;;;28.40;79.40;;;;;;5093922;28;20522;-72
2023/07/22 00:09:21;;;;;;;30.20;9.82;;;28.40;79.10;;;;;;5093877;28;20396;-72
2023/07/22 00:12:25;;;;;;;27.52;9.50;;;28.40;78.90;;;;;;5093462;28;20439;-72
2023/07/22 00:15:29;;;;;;;31.33;10.05;;;28.30;78.80;;;;;;5093132;28;20206;-72
2023/07/22 00:18:34;;;;;;;29.77;10.32;;;28.20;79.10;;;;;;5093883;28;20039;-72
2023/07/22 00:21:38;;;;;;;33.30;11.02;;;28.20;79.40;;;;;;5093535;28;20431;-72
2023/07/22 00:24:42;;;;;;;43.70;11.95;;;28.20;79.20;;;;;;5093062;28;20063;-72
2023/07/22 00:27:46;;;;;;;34.80;11.82;;;28.20;79.20;;;;;;5093398;28;20043;-72
2023/07/22 00:30:50;;;;;;;36.30;11.20;;;28.20;79.20;;;;;;5092767;28;20320;-72
2023/07/22 00:33:54;;;;;;;44.15;11.27;;;28.20;79.30;;;;;;5093250;28;20055;-71
2023/07/22 00:36:58;;;;;;;37.20;10.93;;;28.20;79.40;;;;;;5092363;28;20062;-72
2023/07/22 00:40:11;;;;;;;25.90;11.50;;;28.20;79.90;;;;;;5092199;28;20042;-72
2023/07/22 00:43:16;;;;;;;25.27;10.77;;;28.20;80.00;;;;;;5092996;28;20055;-72
2023/07/22 00:46:20;;;;;;;30.73;11.30;;;28.10;80.60;;;;;;5092825;28;20047;-72
2023/07/22 00:49:27;;;;;;;32.08;11.02;;;27.90;81.40;;;;;;5093028;28;20042;-72
2023/07/22 00:52:33;;;;;;;33.55;11.13;;;27.80;81.20;;;;;;5091507;28;20518;-72
2023/07/22 00:55:40;;;;;;;38.50;10.65;;;27.90;81.30;;;;;;5091656;28;20067;-72
2023/07/22 00:58:44;;;;;;;30.27;10.40;;;27.90;81.00;;;;;;5092843;28;20039;-73
2023/07/22 01:01:48;;;;;;;26.85;10.57;;;28.00;80.80;;;;;;5091689;28;20193;-72
2023/07/22 01:04:52;;;;;;;32.00;11.00;;;27.90;81.10;;;;;;5091932;28;20190;-72
2023/07/22 01:07:57;;;;;;;35.92;11.00;;;27.90;81.30;;;;;;5092569;28;20043;-72
2023/07/22 01:11:01;;;;;;;34.38;11.07;;;27.90;81.50;;;;;;5092496;28;20043;-72
2023/07/22 01:14:04;;;;;;;24.40;10.45;;;27.90;81.70;;;;;;5092775;28;20058;-72
2023/07/22 01:17:10;;;;;;;35.88;11.20;;;27.90;81.30;;;;;;5092041;28;20043;-72
2023/07/22 01:20:16;;;;;;;38.75;11.55;;;27.90;81.30;;;;;;5091720;28;20046;-72
2023/07/22 01:23:20;;;;;;;30.08;9.73;;;27.80;81.70;;;;;;5092204;28;20051;-72
2023/07/22 01:26:24;;;;;;;40.50;10.80;;;27.80;82.00;;;;;;5090990;28;20518;-72
2023/07/22 01:29:28;;;;;;;28.95;10.63;;;27.70;82.10;;;;;;5092035;28;20301;-73
2023/07/22 01:32:32;;;;;;;25.73;9.52;;;27.60;82.20;;;;;;5091862;28;20206;-73
2023/07/22 01:35:36;;;;;;;32.85;10.60;;;27.40;82.70;;;;;;5091408;28;20375;-73
2023/07/22 01:38:40;;;;;;;27.23;10.13;;;27.40;82.00;;;;;;5092008;28;20055;-73
2023/07/22 01:41:44;;;;;;;24.88;9.77;;;27.30;82.10;;;;;;5091924;28;20102;-73
2023/07/22 01:44:48;;;;;;;30.38;8.88;;;27.30;81.90;;;;;;5091671;28;20403;-73
2023/07/22 01:47:52;;;;;;;27.20;9.30;;;27.40;81.50;;;;;;5090947;28;20356;-73
2023/07/22 01:50:56;;;;;;;32.22;9.15;;;27.30;80.80;;;;;;5091670;28;20503;-73
2023/07/22 01:54:00;;;;;;;32.28;9.48;;;27.30;80.90;;;;;;5091428;28;20070;-73
2023/07/22 01:57:05;;;;;;;27.50;9.48;;;27.10;81.90;;;;;;5090763;28;20054;-73
2023/07/22 02:00:10;;;;;;;31.08;8.65;;;27.10;81.70;;;;;;5090748;28;20091;-73
2023/07/22 02:03:17;;;;;;;27.10;10.70;;;27.00;82.40;;;;;;5091358;28;20043;-73
2023/07/22 02:06:21;;;;;;;33.33;8.95;;;27.10;82.80;;;;;;5091657;28;20050;-73
2023/07/22 02:09:25;;;;;;;27.20;8.82;;;27.20;81.90;;;;;;5090783;28;20114;-73
2023/07/22 02:12:29;;;;;;;28.80;8.07;;;27.30;81.00;;;;;;5091236;28;20051;-73
2023/07/22 02:15:33;;;;;;;31.77;9.07;;;27.10;81.00;;;;;;5091450;28;20042;-73
2023/07/22 02:18:37;;;;;;;26.45;8.23;;;27.00;81.30;;;;;;5091218;28;20039;-73
2023/07/22 02:21:40;;;;;;;54.70;10.00;;;27.00;80.70;;;;;;5090655;28;20051;-73
2023/07/22 02:24:44;;;;;;;33.78;8.75;;;27.00;80.80;;;;;;5090919;28;20047;-73
2023/07/22 02:27:48;;;;;;;28.00;8.15;;;26.80;81.60;;;;;;5091240;28;20391;-73
2023/07/22 02:30:53;;;;;;;28.80;8.27;;;26.70;82.60;;;;;;5091297;28;20068;-73
2023/07/22 02:33:57;;;;;;;28.05;8.05;;;26.60;82.60;;;;;;5091039;28;20510;-73
2023/07/22 02:37:01;;;;;;;22.15;8.40;;;26.70;82.70;;;;;;5091195;28;20058;-73
2023/07/22 02:40:08;;;;;;;27.48;7.72;;;26.80;83.30;;;;;;5090509;28;20047;-72
2023/07/22 02:43:15;;;;;;;28.42;8.50;;;26.90;82.30;;;;;;5090174;28;20051;-73
2023/07/22 02:46:19;;;;;;;24.30;8.07;;;27.00;82.40;;;;;;5090342;28;20051;-73
2023/07/22 02:49:23;;;;;;;31.08;8.65;;;26.70;83.00;;;;;;5091059;28;20227;-73
2023/07/22 02:52:27;;;;;;;34.75;9.32;;;26.70;83.10;;;;;;5090643;28;20507;-73
2023/07/22 02:55:31;;;;;;;25.92;8.23;;;26.70;82.90;;;;;;5091654;28;20047;-73
2023/07/22 02:58:36;;;;;;;27.65;8.00;;;26.70;83.10;;;;;;5090735;28;20411;-73
2023/07/22 03:01:40;;;;;;;32.20;8.13;;;26.80;82.40;;;;;;5089826;28;20043;-73
2023/07/22 03:04:44;;;;;;;24.20;8.45;;;26.80;82.20;;;;;;5091087;28;20526;-73
2023/07/22 03:07:48;;;;;;;29.58;8.43;;;26.80;82.40;;;;;;5090723;28;20051;-73
2023/07/22 03:10:52;;;;;;;24.58;7.85;;;26.80;82.00;;;;;;5089881;28;20043;-73
2023/07/22 03:13:56;;;;;;;22.80;8.13;;;26.70;82.50;;;;;;5089641;28;20059;-73
2023/07/22 03:17:00;;;;;;;26.70;8.15;;;26.60;82.10;;;;;;5090624;28;20051;-73
2023/07/22 03:20:14;;;;;;;23.58;8.05;;;26.60;82.30;;;;;;5089911;28;20067;-73
2023/07/22 03:23:18;;;;;;;31.77;8.23;;;26.60;82.40;;;;;;5089764;28;20051;-73
2023/07/22 03:26:21;;;;;;;34.03;8.00;;;26.70;82.00;;;;;;5090497;28;20055;-73
2023/07/22 03:29:25;;;;;;;23.13;8.27;;;26.70;81.30;;;;;;5090839;28;20043;-71
2023/07/22 03:32:29;;;;;;;30.67;8.30;;;26.60;81.70;;;;;;5090379;28;20517;-71
2023/07/22 03:35:34;;;;;;;22.52;7.82;;;26.70;81.90;;;;;;5090659;28;20047;-71
2023/07/22 03:38:40;;;;;;;25.83;7.55;;;26.70;81.80;;;;;;5090317;28;20047;-72
2023/07/22 03:41:44;;;;;;;28.55;8.75;;;26.70;81.80;;;;;;5090192;28;20106;-72
2023/07/22 03:44:48;;;;;;;21.42;8.93;;;26.60;82.10;;;;;;5090563;28;20043;-72
2023/07/22 03:47:57;;;;;;;29.40;7.75;;;26.50;81.90;;;;;;5089613;28;20059;-72
2023/07/22 03:51:01;;;;;;;22.02;7.80;;;26.40;82.30;;;;;;5091842;28;20059;-72
2023/07/22 03:54:05;;;;;;;26.98;8.82;;;26.40;82.90;;;;;;5094110;28;20051;-72
2023/07/22 03:57:10;;;;;;;32.58;8.60;;;26.50;83.10;;;;;;5094144;28;20039;-72
2023/07/22 04:00:14;;;;;;;27.17;8.20;;;26.50;82.90;;;;;;5092986;28;20043;-72
2023/07/22 04:03:18;;;;;;;32.17;7.80;;;26.40;82.60;;;;;;5092930;28;20039;-72
2023/07/22 04:06:22;;;;;;;31.25;8.45;;;26.30;83.30;;;;;;5093779;28;20051;-72
2023/07/22 04:09:27;;;;;;;33.63;8.70;;;26.40;83.40;;;;;;5093372;28;20399;-72
2023/07/22 04:12:31;;;;;;;22.80;8.35;;;26.50;83.10;;;;;;5093161;28;20062;-72
2023/07/22 04:15:35;;;;;;;28.02;8.45;;;26.50;83.50;;;;;;5092640;28;20047;-73
2023/07/22 04:18:38;;;;;;;26.17;8.50;;;26.70;83.80;;;;;;5093438;28;20050;-72
2023/07/22 04:21:43;;;;;;;45.65;9.50;;;26.80;83.70;;;;;;5092309;28;20059;-72
2023/07/22 04:24:48;;;;;;;26.55;9.13;;;26.90;83.80;;;;;;5092859;28;20055;-72
2023/07/22 04:27:52;;;;;;;33.38;8.90;;;27.00;83.80;;;;;;5093226;28;20043;-72
2023/07/22 04:30:58;;;;;;;30.88;12.32;;;27.10;84.70;;;;;;5092357;28;20051;-72
2023/07/22 04:34:02;;;;;;;33.20;12.43;;;27.10;81.80;;;;;;5093248;28;20051;-72
2023/07/22 04:37:06;;;;;;;38.90;11.65;;;27.10;82.00;;;;;;5092761;28;20514;-72
2023/07/22 04:40:19;;;;;;;44.53;11.25;;;27.10;80.60;;;;;;5092817;28;20051;-72
2023/07/22 04:43:24;;;;;;;31.13;10.07;;;27.10;79.90;;;;;;5092986;28;20494;-73
2023/07/22 04:46:29;;;;;;;33.47;9.20;;;27.20;79.70;;;;;;5093088;28;20067;-72
2023/07/22 04:49:33;;;;;;;37.55;11.35;;;27.50;82.60;;;;;;5092750;28;20047;-72
2023/07/22 04:52:37;;;;;;;36.95;12.73;;;27.80;81.20;;;;;;5092606;28;20055;-72
2023/07/22 04:55:41;;;;;;;58.47;14.00;;;28.10;78.10;;;;;;5092647;28;20043;-73
2023/07/22 04:58:45;;;;;;;67.68;14.80;;;28.30;78.30;;;;;;5092892;28;20043;-72
2023/07/22 05:01:49;;;;;;;38.33;11.15;;;28.50;78.90;;;;;;5092567;28;20063;-72
2023/07/22 05:04:53;;;;;;;49.15;11.57;;;28.60;80.40;;;;;;5092791;28;20047;-72
2023/07/22 05:07:57;;;;;;;46.00;10.98;;;28.80;80.00;;;;;;5092535;28;20039;-72
2023/07/22 05:11:01;;;;;;;46.97;9.35;;;28.90;79.40;;;;;;5092702;28;20403;-72
2023/07/22 05:14:05;;;;;;;39.50;9.13;;;29.10;78.20;;;;;;5092591;28;20059;-72
2023/07/22 05:17:09;;;;;;;29.73;9.25;;;29.20;77.70;;;;;;5092327;28;20110;-72
2023/07/22 05:20:13;;;;;;;51.05;10.40;;;29.20;78.00;;;;;;5092530;28;20054;-73
2023/07/22 05:23:17;;;;;;;34.80;8.95;;;29.30;78.70;;;;;;5092242;28;20043;-73
2023/07/22 05:26:20;;;;;;;34.22;9.77;;;29.20;78.20;;;;;;5092086;28;20558;-73
2023/07/22 05:29:24;;;;;;;31.90;9.52;;;29.30;78.30;;;;;;5092238;28;20079;-73
2023/07/22 05:32:32;;;;;;;35.13;9.57;;;29.50;77.40;;;;;;5092128;28;20050;-73
2023/07/22 05:35:36;;;;;;;37.72;9.50;;;29.60;76.60;;;;;;5092094;28;20495;-73
2023/07/22 05:38:40;;;;;;;48.58;9.60;;;29.60;76.20;;;;;;5091995;28;20047;-73
2023/07/22 05:41:43;;;;;;;49.17;10.35;;;29.60;76.20;;;;;;5091915;28;20179;-73
2023/07/22 05:44:48;;;;;;;38.63;9.60;;;29.70;75.90;;;;;;5091830;28;20522;-73
2023/07/22 05:47:52;;;;;;;30.60;8.95;;;29.70;75.70;;;;;;5091950;28;20314;-73
2023/07/22 05:50:56;;;;;;;42.65;9.27;;;29.70;75.40;;;;;;5091645;28;20047;-73
2023/07/22 05:54:00;;;;;;;38.17;8.88;;;29.90;75.50;;;;;;5091506;28;20064;-72
2023/07/22 05:57:04;;;;;;;44.65;9.85;;;29.90;74.80;;;;;;5091711;28;20039;-73
2023/07/22 06:00:08;;;;;;;38.72;8.88;;;30.00;74.30;;;;;;5091509;28;20487;-73
2023/07/22 06:03:18;;;;;;;36.47;9.32;;;30.20;75.00;;;;;;5091578;28;20395;-73
2023/07/22 06:06:22;;;;;;;40.97;9.15;;;30.30;75.00;;;;;;5092008;28;20043;-73
2023/07/22 06:09:26;;;;;;;35.78;8.90;;;30.50;75.30;;;;;;5091283;28;20055;-73
2023/07/22 06:12:30;;;;;;;35.28;8.18;;;30.50;75.40;;;;;;5091131;28;20055;-73
2023/07/22 06:15:35;;;;;;;26.48;7.63;;;30.40;75.50;;;;;;5091486;28;20051;-73
2023/07/22 06:18:39;;;;;;;36.78;8.88;;;30.70;75.10;;;;;;5091151;28;20498;-73
2023/07/22 06:21:44;;;;;;;34.38;8.55;;;30.90;72.80;;;;;;5091094;28;20047;-73
2023/07/22 06:24:47;;;;;;;37.80;9.32;;;30.90;74.40;;;;;;5090927;28;20055;-74
2023/07/22 06:27:54;;;;;;;38.45;9.00;;;31.10;74.00;;;;;;5090437;28;20044;-73
2023/07/22 06:30:57;;;;;;;29.58;7.88;;;31.10;73.60;;;;;;5090846;28;20043;-69
2023/07/22 06:34:02;;;;;;;37.60;8.30;;;31.60;73.20;;;;;;5090986;28;20062;-71
2023/07/22 06:37:07;;;;;;;28.42;7.63;;;32.90;71.00;;;;;;5091330;28;20380;-72
2023/07/22 06:40:11;;;;;;;45.15;8.77;;;33.90;67.40;;;;;;5091218;28;20054;-68
2023/07/22 06:43:15;;;;;;;45.72;9.23;;;34.80;66.00;;;;;;5091187;28;20039;-70
2023/07/22 06:46:20;;;;;;;37.15;8.70;;;35.40;65.20;;;;;;5090823;28;20044;-69
2023/07/22 06:49:24;;;;;;;29.90;9.02;;;35.80;64.80;;;;;;5091062;28;20109;-69
2023/07/22 06:52:28;;;;;;;32.95;8.95;;;36.00;63.90;;;;;;5090923;28;20043;-70
2023/07/22 06:55:32;;;;;;;33.22;7.60;;;36.30;64.20;;;;;;5091232;28;20047;-70
2023/07/22 06:58:37;;;;;;;32.55;9.00;;;36.60;63.80;;;;;;5091281;28;20118;-69
2023/07/22 07:01:43;;;;;;;39.53;8.57;;;36.60;63.00;;;;;;5091517;28;20509;-69
2023/07/22 07:04:47;;;;;;;40.05;8.13;;;36.50;63.20;;;;;;5090841;28;20085;-69
2023/07/22 07:07:51;;;;;;;34.15;8.13;;;36.50;62.80;;;;;;5090650;28;20043;-69
2023/07/22 07:10:55;;;;;;;27.23;6.63;;;36.80;63.70;;;;;;5090732;28;20046;-69
2023/07/22 07:13:59;;;;;;;22.92;7.65;;;37.00;64.20;;;;;;5090693;28;20055;-69
2023/07/22 07:17:03;;;;;;;23.20;7.13;;;37.40;64.10;;;;;;5090667;28;20039;-68
2023/07/22 07:20:09;;;;;;;34.67;7.72;;;37.60;65.00;;;;;;5090326;28;20047;-69
2023/07/22 07:23:13;;;;;;;30.55;7.72;;;37.70;65.30;;;;;;5090393;28;20503;-69
2023/07/22 07:26:17;;;;;;;31.35;8.05;;;38.00;64.60;;;;;;5092915;28;20055;-70
2023/07/22 07:29:21;;;;;;;37.25;7.82;;;38.20;65.10;;;;;;5094641;28;20043;-71
2023/07/22 07:32:25;;;;;;;26.80;7.15;;;38.30;65.60;;;;;;5094248;28;20066;-71
2023/07/22 07:35:29;;;;;;;32.80;8.82;;;37.90;66.80;;;;;;5094301;28;20114;-71
2023/07/22 07:38:33;;;;;;;33.42;7.85;;;37.70;68.20;;;;;;5094054;28;20106;-71
2023/07/22 07:41:37;;;;;;;27.33;7.82;;;37.80;68.10;;;;;;5093910;28;20043;-71
2023/07/22 07:44:41;;;;;;;30.90;7.30;;;37.80;68.10;;;;;;5093938;28;20043;-69
2023/07/22 07:47:48;;;;;;;25.50;8.07;;;38.10;67.90;;;;;;5093999;28;20050;-70
2023/07/22 07:50:52;;;;;;;29.38;8.05;;;38.10;68.40;;;;;;5093993;28;20446;-69
2023/07/22 07:53:59;;;;;;;29.48;8.45;;;38.10;68.10;;;;;;5093812;28;20082;-68
2023/07/22 07:57:03;;;;;;;37.03;8.63;;;38.30;68.50;;;;;;5093890;28;20395;-69
2023/07/22 08:00:11;;;;;;;33.13;7.75;;;38.50;68.30;;;;;;5094086;28;20399;-70
2023/07/22 08:03:15;;;;;;;28.52;7.32;;;38.60;68.50;;;;;;5093828;28;20042;-70
2023/07/22 08:06:21;;;;;;;31.25;7.85;;;38.80;67.90;;;;;;5092994;28;20046;-72
2023/07/22 08:09:25;;;;;;;33.15;7.93;;;39.10;67.20;;;;;;5093005;28;20047;-71
2023/07/22 08:12:29;;;;;;;24.02;7.55;;;38.90;67.30;;;;;;5093537;28;20051;-71
2023/07/22 08:15:34;;;;;;;35.42;8.40;;;39.20;67.70;;;;;;5093362;28;20043;-71
2023/07/22 08:18:38;;;;;;;28.23;7.90;;;39.20;67.90;;;;;;5093505;28;20039;-71
2023/07/22 08:21:42;;;;;;;26.27;9.82;;;38.80;66.60;;;;;;5093503;28;20035;-70
2023/07/22 08:24:46;;;;;;;42.08;9.23;;;38.90;67.90;;;;;;5093384;28;20143;-71
2023/07/22 08:27:50;;;;;;;31.33;8.93;;;38.80;67.40;;;;;;5093426;28;20047;-70
2023/07/22 08:30:55;;;;;;;27.50;7.93;;;38.90;67.60;;;;;;5093455;28;20051;-71
2023/07/22 08:33:59;;;;;;;32.65;7.93;;;39.10;66.80;;;;;;5093138;28;20051;-71
2023/07/22 08:37:03;;;;;;;28.88;8.63;;;39.30;66.90;;;;;;5092503;28;20044;-69
2023/07/22 08:40:08;;;;;;;34.15;8.25;;;39.40;67.00;;;;;;5093017;28;20043;-71
2023/07/22 08:43:12;;;;;;;34.90;8.50;;;39.40;67.00;;;;;;5092691;28;20047;-72
2023/07/22 08:46:19;;;;;;;31.67;8.77;;;39.60;67.50;;;;;;5093187;28;20047;-73
2023/07/22 08:49:24;;;;;;;29.95;8.93;;;39.80;68.40;;;;;;5092731;28;20055;-72
2023/07/22 08:52:28;;;;;;;31.45;7.72;;;40.00;66.80;;;;;;5093022;28;20043;-72
2023/07/22 08:55:35;;;;;;;29.45;8.20;;;40.00;67.50;;;;;;5092871;28;20521;-73
2023/07/22 08:58:42;;;;;;;32.33;8.40;;;39.90;67.30;;;;;;5092726;28;20114;-70
2023/07/22 09:01:48;;;;;;;31.88;8.20;;;39.90;67.60;;;;;;5093142;28;20055;-71
2023/07/22 09:04:52;;;;;;;36.20;8.98;;;39.60;67.70;;;;;;5092640;28;20039;-71
2023/07/22 09:07:56;;;;;;;30.02;8.52;;;39.10;68.90;;;;;;5092329;28;20047;-72
2023/07/22 09:11:01;;;;;;;32.47;8.73;;;38.70;69.60;;;;;;5092337;28;20059;-71
2023/07/22 09:14:06;;;;;;;21.73;7.78;;;38.30;70.80;;;;;;5092201;28;20050;-71
2023/07/22 09:17:10;;;;;;;39.47;8.57;;;38.00;71.20;;;;;;5092461;28;20043;-71
2023/07/22 09:20:14;;;;;;;29.08;7.38;;;38.00;71.80;;;;;;5092056;28;20490;-71
2023/07/22 09:23:18;;;;;;;21.67;6.95;;;38.00;74.40;;;;;;5092213;28;20059;-70
2023/07/22 09:26:22;;;;;;;22.05;6.95;;;37.90;76.00;;;;;;5092271;28;20514;-71
2023/07/22 09:29:34;;;;;;;19.85;6.22;;;37.80;76.60;;;;;;5092208;28;20047;-71
2023/07/22 09:32:38;;;;;;;25.33;6.55;;;38.00;76.20;;;;;;5091642;28;20043;-71
2023/07/22 09:35:46;;;;;;;29.73;7.65;;;37.90;76.10;;;;;;5092011;28;20043;-71
2023/07/22 09:39:03;;;;;;;33.75;7.70;;;38.00;76.10;;;;;;5092070;28;20043;-72
2023/07/22 09:42:08;;;;;;;25.13;6.70;;;38.00;76.30;;;;;;5091953;28;20068;-71
2023/07/22 09:45:12;;;;;;;35.88;8.30;;;38.00;76.50;;;;;;5091958;28;20494;-71
2023/07/22 09:48:16;;;;;;;21.65;7.68;;;38.00;76.20;;;;;;5091434;28;20118;-72
2023/07/22 09:51:21;;;;;;;22.55;7.43;;;37.90;76.10;;;;;;5091394;28;20039;-72
2023/07/22 09:54:29;;;;;;;30.55;7.22;;;37.80;75.00;;;;;;5091541;28;20396;-71
2023/07/22 09:57:35;;;;;;;24.92;7.50;;;37.90;74.30;;;;;;5091385;28;20039;-71
2023/07/22 10:00:45;;;;;;;30.80;8.40;;;37.80;73.90;;;;;;5091427;28;20051;-71
2023/07/22 10:03:54;;;;;;;37.10;9.02;;;37.80;72.00;;;;;;5091238;28;20051;-71
2023/07/22 10:06:59;;;;;;;28.17;7.82;;;37.90;70.40;;;;;;5091524;28;20055;-70
2023/07/22 10:10:04;;;;;;;20.40;7.63;;;37.90;70.70;;;;;;5091420;28;20043;-71
2023/07/22 10:13:09;;;;;;;21.50;7.80;;;37.80;71.50;;;;;;5091089;28;20051;-71
2023/07/22 10:16:12;;;;;;;36.13;8.05;;;37.80;71.60;;;;;;5091258;28;20391;-71
2023/07/22 10:19:17;;;;;;;33.33;7.68;;;37.80;74.60;;;;;;5091301;28;20039;-71
2023/07/22 10:22:22;;;;;;;31.92;8.07;;;37.70;75.90;;;;;;5091220;28;20423;-71
2023/07/22 10:25:26;;;;;;;36.80;7.35;;;37.70;76.60;;;;;;5091237;28;20055;-71
2023/07/22 10:28:30;;;;;;;26.02;8.05;;;37.70;77.30;;;;;;5091403;28;20039;-71
2023/07/22 10:31:34;;;;;;;32.50;7.05;;;37.70;78.10;;;;;;5090975;28;20106;-71
2023/07/22 10:34:37;;;;;;;22.92;7.43;;;37.50;78.80;;;;;;5090961;28;20051;-71
2023/07/22 10:37:45;;;;;;;20.05;6.57;;;37.50;79.40;;;;;;5090805;28;20051;-71
2023/07/22 10:40:54;;;;;;;22.38;6.88;;;37.50;78.90;;;;;;5091011;28;20043;-71
2023/07/22 10:44:00;;;;;;;17.45;7.10;;;37.50;77.10;;;;;;5091142;28;20483;-71
2023/07/22 10:47:07;;;;;;;23.88;6.45;;;37.50;78.80;;;;;;5091125;28;20090;-71
2023/07/22 10:50:11;;;;;;;26.73;7.18;;;37.50;77.80;;;;;;5090684;28;20048;-71
2023/07/22 10:53:24;;;;;;;24.88;7.47;;;37.40;79.00;;;;;;5090616;28;20585;-71
2023/07/22 10:56:29;;;;;;;29.90;6.82;;;37.40;78.40;;;;;;5090982;28;20051;-71
2023/07/22 10:59:36;;;;;;;37.05;7.35;;;37.30;77.90;;;;;;5091900;28;20102;-71
2023/07/22 11:02:43;;;;;;;33.53;7.32;;;37.30;77.60;;;;;;5094746;28;20047;-71
2023/07/22 11:05:50;;;;;;;23.02;6.18;;;37.10;77.30;;;;;;5095188;28;20047;-71
2023/07/22 11:08:55;;;;;;;24.40;6.97;;;37.00;78.00;;;;;;5094180;28;20391;-71
2023/07/22 11:12:15;;;;;;;28.17;7.70;;;36.90;78.00;;;;;;5094515;28;20047;-72
2023/07/22 11:15:19;;;;;;;24.93;7.30;;;36.80;78.00;;;;;;5094953;28;20066;-71
2023/07/22 11:18:34;;;;;;;25.15;7.78;;;36.70;75.70;;;;;;5094703;28;20415;-71
2023/07/22 11:21:39;;;;;;;30.63;7.15;;;36.70;76.00;;;;;;5094480;28;20510;-71
2023/07/22 11:24:43;;;;;;;19.85;6.80;;;36.60;77.40;;;;;;5094349;28;20546;-71
2023/07/22 11:27:50;;;;;;;30.42;7.80;;;36.70;77.90;;;;;;5094691;28;20063;-71
2023/07/22 11:30:54;;;;;;;20.92;6.15;;;36.70;77.70;;;;;;5094335;28;20039;-71
2023/07/22 11:33:59;;;;;;;24.30;7.60;;;36.70;77.50;;;;;;5094321;28;20510;-72
2023/07/22 11:37:03;;;;;;;26.85;7.20;;;36.70;78.20;;;;;;5094499;28;20047;-71
2023/07/22 11:40:12;;;;;;;27.10;6.88;;;36.80;77.60;;;;;;5094200;28;20059;-72
2023/07/22 11:43:16;;;;;;;31.67;7.05;;;36.70;77.50;;;;;;5094239;28;20066;-71
2023/07/22 11:46:21;;;;;;;30.52;7.40;;;36.70;77.40;;;;;;5094146;28;20501;-72
2023/07/22 11:49:39;;;;;;;23.13;7.05;;;36.60;76.70;;;;;;5094075;28;20644;-72
2023/07/22 11:52:51;;;;;;;27.15;6.50;;;36.60;76.90;;;;;;5093688;28;20050;-71
2023/07/22 11:55:59;;;;;;;32.30;7.90;;;36.60;78.20;;;;;;5093865;28;20051;-71
2023/07/22 11:59:04;;;;;;;31.52;7.28;;;36.50;78.40;;;;;;5093686;28;20043;-72
2023/07/22 12:02:13;;;;;;;28.92;8.35;;;36.40;78.70;;;;;;5093641;28;20055;-71
2023/07/22 12:05:21;;;;;;;35.97;7.60;;;36.30;78.50;;;;;;5092846;28;20043;-71
2023/07/22 12:08:25;;;;;;;23.60;7.53;;;36.20;78.20;;;;;;5093921;28;20047;-72
2023/07/22 12:11:32;;;;;;;23.67;7.38;;;36.20;78.30;;;;;;5092804;28;20046;-71
2023/07/22 12:14:41;;;;;;;23.50;6.97;;;36.20;77.80;;;;;;5093443;28;20063;-72
2023/07/22 12:17:50;;;;;;;32.95;8.35;;;36.20;78.90;;;;;;5093463;28;20102;-72
2023/07/22 12:20:54;;;;;;;25.90;7.43;;;36.20;77.90;;;;;;5093358;28;20051;-71
2023/07/22 12:23:58;;;;;;;22.40;7.00;;;36.10;78.80;;;;;;5093268;28;20051;-71
2023/07/22 12:27:03;;;;;;;32.40;8.07;;;36.10;79.60;;;;;;5093421;28;20047;-72
2023/07/22 12:30:08;;;;;;;32.67;7.22;;;36.00;79.50;;;;;;5093244;28;20513;-72
2023/07/22 12:33:11;;;;;;;30.42;8.40;;;35.80;79.90;;;;;;5093322;28;20051;-71
2023/07/22 12:36:15;;;;;;;28.60;7.13;;;35.80;80.00;;;;;;5092826;28;20068;-71
2023/07/22 12:39:19;;;;;;;18.35;7.30;;;35.80;79.80;;;;;;5093181;28;20395;-71
2023/07/22 12:42:23;;;;;;;21.52;7.25;;;35.70;80.10;;;;;;5093078;28;20055;-71
2023/07/22 12:45:28;;;;;;;32.90;7.50;;;35.70;80.10;;;;;;5093052;28;20039;-71
2023/07/22 12:48:32;;;;;;;29.60;8.00;;;35.80;80.20;;;;;;5092996;28;20047;-71
2023/07/22 12:51:36;;;;;;;32.05;7.50;;;35.80;80.10;;;;;;5092939;28;20046;-71
2023/07/22 12:54:41;;;;;;;21.23;7.20;;;35.70;79.80;;;;;;5092551;28;20400;-71
2023/07/22 12:57:45;;;;;;;26.90;7.20;;;35.60;79.30;;;;;;5092666;28;20047;-71
2023/07/22 13:00:49;;;;;;;17.88;6.40;;;35.60;79.70;;;;;;5092598;28;20047;-71
2023/07/22 13:03:53;;;;;;;27.45;7.55;;;35.50;79.40;;;;;;5092654;28;20506;-71
2023/07/22 13:06:58;;;;;;;16.40;7.05;;;35.50;79.60;;;;;;5091785;28;20051;-69
2023/07/22 13:10:25;;;;;;;24.70;7.70;;;35.40;79.60;;;;;;5088508;28;20042;-69
2023/07/22 13:13:32;;;;;;;;;;;35.50;80.60;;;;;;5089174;28;20434;-69
2023/07/22 13:16:36;;;;;;;28.88;7.07;;;35.40;79.70;;;;;;5088822;28;20165;-69
2023/07/22 13:19:40;;;;;;;29.25;7.43;;;35.40;80.00;;;;;;5089592;28;20403;-69
2023/07/22 13:22:44;;;;;;;34.25;7.90;;;35.30;81.20;;;;;;5091007;28;20498;-69
2023/07/22 13:25:48;;;;;;;27.80;7.47;;;35.30;80.80;;;;;;5091172;28;20063;-69
2023/07/22 13:28:52;;;;;;;23.65;9.00;;;35.40;82.00;;;;;;5092036;28;20051;-69
2023/07/22 13:31:56;;;;;;;27.25;7.72;;;35.30;81.60;;;;;;5092112;28;20047;-69
2023/07/22 13:35:01;;;;;;;24.10;7.28;;;35.30;82.00;;;;;;5091773;28;20514;-69
2023/07/22 13:38:05;;;;;;;26.75;6.93;;;35.30;83.00;;;;;;5092058;28;20078;-68
2023/07/22 13:41:09;;;;;;;28.25;7.28;;;35.20;82.90;;;;;;5091767;28;20066;-68
2023/07/22 13:44:13;;;;;;;31.92;8.00;;;35.20;82.80;;;;;;5091856;28;20047;-68
2023/07/22 13:47:16;;;;;;;31.05;7.65;;;35.20;82.90;;;;;;5091181;28;20051;-68
2023/07/22 13:50:21;;;;;;;26.70;7.00;;;35.20;83.00;;;;;;5091639;28;20043;-68
2023/07/22 13:53:27;;;;;;;28.42;7.70;;;35.20;83.60;;;;;;5091700;28;20063;-68
2023/07/22 13:56:31;;;;;;;30.52;7.85;;;35.20;83.20;;;;;;5091715;28;20055;-68
2023/07/22 13:59:36;;;;;;;25.95;7.22;;;35.20;82.80;;;;;;5091639;28;20035;-68
2023/07/22 14:02:40;;;;;;;28.52;7.30;;;35.10;83.20;;;;;;5091588;28;20051;-68
2023/07/22 14:05:44;;;;;;;31.40;7.70;;;35.10;83.80;;;;;;5091403;28;20039;-68
2023/07/22 14:08:48;;;;;;;32.50;7.70;;;35.10;84.40;;;;;;5091568;28;20055;-69
2023/07/22 14:11:52;;;;;;;38.47;7.72;;;35.00;83.60;;;;;;5091163;28;20047;-69
2023/07/22 14:14:56;;;;;;;43.47;8.98;;;35.00;83.10;;;;;;5091103;28;20050;-69
2023/07/22 14:18:00;;;;;;;23.80;7.47;;;34.90;85.00;;;;;;5091093;28;20046;-68
2023/07/22 14:21:04;;;;;;;28.38;8.18;;;34.80;85.30;;;;;;5091138;28;20532;-68
2023/07/22 14:24:08;;;;;;;37.50;9.07;;;34.80;86.40;;;;;;5090993;28;20057;-68
2023/07/22 14:27:14;;;;;;;37.42;9.15;;;34.80;86.50;;;;;;5091324;28;20043;-68
2023/07/22 14:30:18;;;;;;;40.35;9.77;;;34.90;87.60;;;;;;5091246;28;20409;-68
2023/07/22 14:33:22;;;;;;;50.83;9.32;;;34.70;88.40;;;;;;5091194;28;20424;-68
2023/07/22 14:36:26;;;;;;;39.85;8.82;;;34.60;88.50;;;;;;5091033;28;20047;-68
2023/07/22 14:39:31;;;;;;;40.85;10.18;;;34.40;88.50;;;;;;5090994;28;20525;-69
2023/07/22 14:42:35;;;;;;;36.55;9.00;;;34.40;89.70;;;;;;5090830;28;20043;-68
2023/07/22 14:45:42;;;;;;;30.27;8.63;;;34.20;89.80;;;;;;5090667;28;20043;-68
2023/07/22 14:48:46;;;;;;;35.72;8.73;;;34.20;89.80;;;;;;5090577;28;20035;-67
2023/07/22 14:51:50;;;;;;;31.60;7.55;;;34.10;90.20;;;;;;5089380;28;20043;-67
2023/07/22 14:54:54;;;;;;;36.63;8.35;;;35.10;88.90;;;;;;5088938;28;20059;-67
2023/07/22 14:57:57;;;;;;;32.22;8.13;;;36.20;86.10;;;;;;5090648;28;20553;-67
2023/07/22 15:01:01;;;;;;;37.08;9.13;;;37.20;83.20;;;;;;5090437;28;20043;-67
2023/07/22 15:04:06;;;;;;;33.25;8.30;;;37.90;81.30;;;;;;5090330;28;20047;-67
2023/07/22 15:07:10;;;;;;;42.30;9.05;;;38.30;79.30;;;;;;5090621;28;20046;-67
2023/07/22 15:10:15;;;;;;;38.17;9.80;;;38.40;79.00;;;;;;5090970;28;20051;-67
2023/07/22 15:13:19;;;;;;;34.22;8.63;;;38.70;79.40;;;;;;5090474;28;20046;-66
2023/07/22 15:16:22;;;;;;;33.42;8.00;;;38.50;79.80;;;;;;5088888;28;20055;-66
2023/07/22 15:19:26;;;;;;;31.13;8.00;;;38.40;79.70;;;;;;5090908;28;20043;-68
2023/07/22 15:22:30;;;;;;;25.63;7.70;;;38.00;79.80;;;;;;5090317;28;20050;-68
2023/07/22 15:25:34;;;;;;;35.28;8.82;;;38.00;80.00;;;;;;5090394;28;20055;-67
2023/07/22 15:28:39;;;;;;;30.55;7.45;;;38.10;80.20;;;;;;5090854;28;20047;-66
2023/07/22 15:31:44;;;;;;;22.02;6.53;;;38.10;80.00;;;;;;5090295;28;20047;-68
2023/07/22 15:34:48;;;;;;;29.42;7.85;;;37.50;80.00;;;;;;5088663;28;20403;-69
2023/07/22 15:37:54;;;;;;;29.40;8.63;;;36.90;80.70;;;;;;5088302;28;20055;-68
2023/07/22 15:40:58;;;;;;;25.02;7.68;;;36.30;82.40;;;;;;5089872;28;20040;-68
2023/07/22 15:44:02;;;;;;;27.80;7.78;;;35.90;83.40;;;;;;5089757;28;20051;-69
2023/07/22 15:47:06;;;;;;;42.17;9.23;;;35.60;83.40;;;;;;5091771;28;20070;-69